createdAt,value
2023-01-13T00:02:08.386Z,28.40
2023-01-13T00:05:57.616Z,35.10
2023-01-13T00:09:46.680Z,34.80
2023-01-13T00:13:36.157Z,43.70
2023-01-13T00:17:25.224Z,38.10
2023-01-13T00:21:14.566Z,34.00
2023-01-13T00:25:03.640Z,44.70
2023-01-13T00:28:52.759Z,34.00
2023-01-13T00:32:41.848Z,29.10
2023-01-13T00:36:36.579Z,26.50
2023-01-13T00:40:25.701Z,25.80
2023-01-13T00:44:14.735Z,31.20
2023-01-13T00:48:03.798Z,30.50
2023-01-13T00:51:58.917Z,21.30
2023-01-13T00:55:48.088Z,27.60
2023-01-13T00:59:37.234Z,26.70
2023-01-13T01:03:29.326Z,28.30
2023-01-13T01:07:18.461Z,23.10
2023-01-13T01:11:07.570Z,24.10
2023-01-13T01:14:56.642Z,35.70
2023-01-13T01:18:45.681Z,29.80
2023-01-13T01:22:34.913Z,29.90
2023-01-13T01:26:23.989Z,28.40
2023-01-13T01:30:13.104Z,27.00
2023-01-13T01:34:02.153Z,35.00
2023-01-13T01:37:51.196Z,34.30
2023-01-13T01:41:40.310Z,27.40
2023-01-13T01:45:50.742Z,32.40
2023-01-13T01:49:39.894Z,37.10
2023-01-13T01:53:29.100Z,38.00
2023-01-13T01:57:18.172Z,36.60
2023-01-13T02:01:07.708Z,42.60
2023-01-13T02:04:56.906Z,33.10
2023-01-13T02:08:45.988Z,36.10
2023-01-13T02:12:50.294Z,36.40
2023-01-13T02:16:48.336Z,35.10
2023-01-13T02:20:35.793Z,35.10
2023-01-13T02:24:23.658Z,31.90
2023-01-13T02:28:24.591Z,35.40
2023-01-13T02:32:13.746Z,31.50
2023-01-13T02:36:08.563Z,32.70
2023-01-13T02:40:03.576Z,31.80
2023-01-13T02:43:57.245Z,35.20
2023-01-13T02:47:46.330Z,33.40
2023-01-13T02:51:50.395Z,28.10
2023-01-13T02:55:42.268Z,26.40
2023-01-13T02:59:31.337Z,28.20
2023-01-13T03:03:20.438Z,27.70
2023-01-13T03:07:12.582Z,29.40
2023-01-13T03:11:20.018Z,34.90
2023-01-13T03:15:11.606Z,25.40
2023-01-13T03:19:12.974Z,26.10
2023-01-13T03:23:03.499Z,30.50
2023-01-13T03:27:14.082Z,28.80
2023-01-13T03:31:27.678Z,26.20
2023-01-13T03:35:28.716Z,28.10
2023-01-13T03:39:22.963Z,26.00
2023-01-13T03:43:20.983Z,24.60
2023-01-13T03:47:12.682Z,27.30
2023-01-13T03:51:11.129Z,25.80
2023-01-13T03:55:00.185Z,26.40
2023-01-13T03:58:55.311Z,27.80
2023-01-13T04:02:53.736Z,29.00
2023-01-13T04:06:51.743Z,30.90
2023-01-13T04:10:46.887Z,33.50
2023-01-13T04:14:35.909Z,30.70
2023-01-13T04:18:24.991Z,33.80
2023-01-13T04:22:14.071Z,31.90
2023-01-13T04:26:03.197Z,29.80
2023-01-13T04:29:52.381Z,33.40
2023-01-13T04:33:41.481Z,30.80
2023-01-13T04:37:30.786Z,34.40
2023-01-13T04:41:12.538Z,30.20
2023-01-13T04:44:55.961Z,30.70
2023-01-13T04:48:45.163Z,32.10
2023-01-13T04:52:34.221Z,33.70
2023-01-13T04:56:23.288Z,39.20
2023-01-13T05:00:12.529Z,33.50
2023-01-13T05:04:01.782Z,38.20
2023-01-13T05:07:50.889Z,41.50
2023-01-13T05:11:41.133Z,43.70
2023-01-13T05:15:28.772Z,41.60
2023-01-13T05:19:17.818Z,47.90
2023-01-13T05:23:05.513Z,40.70
2023-01-13T05:26:54.579Z,36.30
2023-01-13T05:30:43.809Z,32.40
2023-01-13T05:34:32.907Z,41.70
2023-01-13T05:38:22.024Z,42.40
2023-01-13T05:42:09.873Z,35.10
2023-01-13T05:45:58.998Z,39.30
2023-01-13T05:49:48.224Z,32.30
2023-01-13T05:53:37.361Z,36.70
2023-01-13T05:57:26.487Z,32.20
2023-01-13T06:01:15.850Z,41.90
2023-01-13T06:05:05.063Z,35.30
2023-01-13T06:08:54.124Z,36.40
2023-01-13T06:12:43.164Z,30.80
2023-01-13T06:16:32.330Z,33.50
2023-01-13T06:20:21.417Z,38.20
2023-01-13T06:24:10.491Z,25.20
2023-01-13T06:32:06.203Z,32.80
2023-01-13T06:35:55.283Z,41.60
2023-01-13T06:39:44.357Z,40.20
2023-01-13T06:43:36.335Z,36.20
2023-01-13T06:47:25.882Z,34.30
2023-01-13T06:51:14.956Z,35.20
2023-01-13T06:55:04.085Z,38.70
2023-01-13T06:58:53.113Z,44.10
2023-01-13T07:02:42.312Z,42.20
2023-01-13T07:06:31.427Z,44.70
2023-01-13T07:10:20.499Z,45.10
2023-01-13T07:14:08.083Z,48.40
2023-01-13T07:17:57.212Z,44.70
2023-01-13T07:21:46.323Z,51.80
2023-01-13T07:25:35.404Z,41.80
2023-01-13T07:29:24.425Z,43.00
2023-01-13T07:33:13.583Z,42.40
2023-01-13T07:37:05.666Z,36.20
2023-01-13T07:40:54.841Z,40.10
2023-01-13T07:44:46.548Z,40.00
2023-01-13T07:48:35.692Z,42.20
2023-01-13T07:52:24.821Z,41.50
2023-01-13T07:56:11.230Z,41.20
2023-01-13T08:00:00.519Z,45.30
2023-01-13T08:03:49.687Z,31.80
2023-01-13T08:07:38.729Z,42.70
2023-01-13T08:11:27.835Z,38.20
2023-01-13T08:15:16.942Z,39.00
2023-01-13T08:19:06.017Z,37.90
2023-01-13T08:22:55.087Z,34.20
2023-01-13T08:26:44.186Z,40.80
2023-01-13T08:30:33.328Z,33.70
2023-01-13T08:34:22.522Z,38.30
2023-01-13T08:38:11.597Z,34.80
2023-01-13T08:42:16.155Z,40.80
2023-01-13T08:46:05.597Z,34.50
2023-01-13T08:49:54.808Z,51.60
2023-01-13T08:53:43.911Z,43.50
2023-01-13T08:57:33.366Z,38.10
2023-01-13T09:01:22.622Z,38.00
2023-01-13T09:05:17.962Z,34.00
2023-01-13T09:09:07.063Z,37.10
2023-01-13T09:12:54.644Z,38.10
2023-01-13T09:16:43.712Z,39.70
2023-01-13T09:20:32.752Z,40.30
2023-01-13T09:24:21.871Z,31.80
2023-01-13T09:28:10.972Z,31.20
2023-01-13T09:32:00.084Z,38.30
2023-01-13T09:35:49.435Z,62.90
2023-01-13T09:39:38.753Z,36.00
2023-01-13T09:43:32.097Z,27.20
2023-01-13T09:47:18.845Z,34.90
2023-01-13T09:51:06.611Z,32.40
2023-01-13T09:55:01.497Z,28.90
2023-01-13T09:58:50.614Z,27.80
2023-01-13T10:02:42.288Z,23.60
2023-01-13T10:06:37.439Z,24.90
2023-01-13T10:10:25.270Z,22.40
2023-01-13T10:14:17.132Z,26.00
2023-01-13T10:18:15.083Z,31.80
2023-01-13T10:22:13.203Z,29.50
2023-01-13T10:26:10.360Z,28.70
2023-01-13T10:30:05.411Z,27.50
2023-01-13T10:34:00.245Z,29.50
2023-01-13T10:37:59.871Z,28.50
2023-01-13T10:41:55.222Z,27.70
2023-01-13T10:45:47.169Z,27.10
2023-01-13T10:49:36.368Z,24.70
2023-01-13T10:53:37.732Z,24.60
2023-01-13T10:57:27.101Z,25.20
2023-01-13T11:01:31.490Z,25.60
2023-01-13T11:05:23.544Z,27.10
2023-01-13T11:09:24.719Z,23.40
2023-01-13T11:13:32.166Z,23.40
2023-01-13T11:17:21.308Z,22.40
2023-01-13T11:21:19.578Z,27.30
2023-01-13T11:25:26.918Z,21.70
2023-01-13T11:29:21.946Z,27.00
2023-01-13T11:33:11.052Z,21.80
2023-01-13T11:37:05.883Z,23.90
2023-01-13T11:41:16.260Z,19.40
2023-01-13T11:45:05.359Z,21.30
2023-01-13T11:48:53.889Z,24.20
2023-01-13T11:52:52.119Z,24.00
2023-01-13T11:56:46.968Z,25.50
2023-01-13T12:00:38.782Z,25.10
2023-01-13T12:04:33.857Z,23.90
2023-01-13T12:08:41.325Z,21.60
2023-01-13T12:12:42.631Z,22.00
2023-01-13T12:16:31.769Z,22.10
2023-01-13T12:20:24.096Z,21.30
2023-01-13T12:24:34.249Z,20.20
2023-01-13T12:28:37.343Z,22.50
2023-01-13T12:32:29.213Z,21.30
2023-01-13T12:36:18.322Z,19.20
2023-01-13T12:40:22.688Z,15.50
2023-01-13T12:44:39.027Z,18.60
2023-01-13T12:48:34.205Z,20.10
2023-01-13T12:52:35.094Z,17.50
2023-01-13T12:56:26.970Z,20.40
2023-01-13T13:00:19.421Z,19.30
2023-01-13T13:04:08.570Z,19.70
2023-01-13T13:08:00.484Z,18.00
2023-01-13T13:11:57.143Z,18.20
2023-01-13T13:16:04.493Z,18.80
2023-01-13T13:19:59.387Z,16.20
2023-01-13T13:23:48.537Z,14.70
2023-01-13T13:27:37.430Z,14.80
2023-01-13T13:31:31.610Z,13.00
2023-01-13T13:35:31.644Z,14.80
2023-01-13T13:39:34.621Z,14.80
2023-01-13T13:43:21.964Z,17.40
2023-01-13T13:47:24.899Z,16.10
2023-01-13T13:50:57.693Z,13.20
2023-01-13T13:54:45.776Z,16.00
2023-01-13T13:58:31.393Z,13.80
2023-01-13T14:02:14.988Z,13.40
2023-01-13T14:06:08.917Z,13.50
2023-01-13T14:09:58.001Z,10.40
2023-01-13T14:13:35.967Z,12.90
2023-01-13T14:17:18.205Z,14.50
2023-01-13T14:20:57.787Z,15.20
2023-01-13T14:24:58.996Z,14.30
2023-01-13T14:28:50.654Z,18.30
2023-01-13T14:32:39.733Z,23.60
2023-01-13T14:36:43.798Z,16.00
2023-01-13T14:40:32.937Z,18.70
2023-01-13T14:44:24.694Z,15.40
2023-01-13T14:48:22.993Z,14.00
2023-01-13T14:52:12.129Z,14.70
2023-01-13T14:56:12.594Z,14.00
2023-01-13T15:00:13.812Z,14.50
2023-01-13T15:04:05.685Z,14.50
2023-01-13T15:07:54.800Z,13.50
2023-01-13T15:11:50.177Z,11.40
2023-01-13T15:15:39.338Z,13.80
2023-01-13T15:19:28.542Z,15.90
2023-01-13T15:23:20.654Z,18.90
2023-01-13T15:27:21.129Z,13.90
2023-01-13T15:31:16.285Z,14.10
2023-01-13T15:35:05.355Z,17.40
2023-01-13T15:38:57.072Z,35.20
2023-01-13T15:42:44.741Z,19.70
2023-01-13T15:46:32.509Z,18.20
2023-01-13T15:50:21.743Z,17.10
2023-01-13T15:54:10.857Z,19.30
2023-01-13T15:58:02.704Z,21.10
2023-01-13T16:01:51.811Z,32.80
2023-01-13T16:05:40.921Z,31.60
2023-01-13T16:09:30.014Z,46.80
2023-01-13T16:13:19.116Z,51.60
2023-01-13T16:17:11.003Z,63.00
2023-01-13T16:21:00.226Z,57.20
2023-01-13T16:24:49.282Z,58.50
2023-01-13T16:28:38.414Z,71.00
2023-01-13T16:32:27.573Z,66.40
2023-01-13T16:36:16.636Z,60.90
2023-01-13T16:40:05.727Z,60.70
2023-01-13T16:43:54.894Z,64.30
2023-01-13T16:47:43.979Z,67.60
2023-01-13T16:51:36.225Z,63.60
2023-01-13T16:55:25.311Z,59.00
2023-01-13T16:59:17.404Z,36.40
2023-01-13T17:03:06.483Z,41.30
2023-01-13T17:06:58.071Z,31.40
2023-01-13T17:10:47.246Z,32.30
2023-01-13T17:14:36.409Z,31.40
2023-01-13T17:18:25.551Z,29.30
2023-01-13T17:22:14.920Z,34.10
2023-01-13T17:26:03.989Z,28.40
2023-01-13T17:29:56.250Z,29.30
2023-01-13T17:33:45.335Z,25.40
2023-01-13T17:37:34.430Z,23.90
2023-01-13T17:41:23.611Z,19.80
2023-01-13T17:45:15.522Z,22.40
2023-01-13T17:49:04.640Z,18.50
2023-01-13T17:52:53.848Z,61.60
2023-01-13T17:56:42.957Z,46.20
2023-01-13T18:00:32.022Z,38.90
2023-01-13T18:04:13.694Z,37.90
2023-01-13T18:08:02.813Z,33.40
2023-01-13T18:11:51.922Z,34.50
2023-01-13T18:15:41.048Z,29.60
2023-01-13T18:19:28.593Z,32.30
2023-01-13T18:23:16.329Z,34.30
2023-01-13T18:27:09.604Z,33.10
2023-01-13T18:30:58.752Z,26.90
2023-01-13T18:34:48.001Z,22.70
2023-01-13T18:38:41.435Z,21.10
2023-01-13T18:42:29.221Z,20.10
2023-01-13T18:46:18.437Z,22.50
2023-01-13T18:50:07.587Z,17.10
2023-01-13T18:53:56.777Z,17.40
2023-01-13T18:57:45.895Z,18.50
2023-01-13T19:01:43.992Z,19.60
2023-01-13T19:05:33.431Z,21.30
2023-01-13T19:09:22.555Z,18.90
2023-01-13T19:13:11.681Z,16.50
2023-01-13T19:17:00.755Z,17.20
2023-01-13T19:20:50.135Z,26.00
2023-01-13T19:24:39.386Z,30.60
2023-01-13T19:28:28.591Z,48.50
2023-01-13T19:32:17.686Z,56.30
2023-01-13T19:36:07.094Z,53.50
2023-01-13T19:39:56.207Z,49.80
2023-01-13T19:43:44.006Z,57.60
2023-01-13T19:47:33.128Z,52.30
2023-01-13T19:51:22.257Z,39.10
2023-01-13T19:55:11.491Z,38.10
2023-01-13T19:59:00.596Z,30.80
2023-01-13T20:02:49.844Z,40.60
2023-01-13T20:06:39.092Z,38.00
2023-01-13T20:10:28.269Z,38.30
2023-01-13T20:14:17.414Z,37.50
2023-01-13T20:18:06.474Z,38.90
2023-01-13T20:21:55.594Z,34.60
2023-01-13T20:25:44.887Z,34.20
2023-01-13T20:29:34.107Z,29.10
2023-01-13T20:33:23.198Z,29.10
2023-01-13T20:37:12.331Z,30.30
2023-01-13T20:41:01.442Z,29.70
2023-01-13T20:44:50.519Z,23.00
2023-01-13T20:48:39.621Z,27.40
2023-01-13T20:52:31.778Z,27.90
2023-01-13T20:56:20.994Z,22.10
2023-01-13T21:00:10.126Z,18.20
2023-01-13T21:03:59.326Z,37.50
2023-01-13T21:07:48.463Z,34.10
2023-01-13T21:11:41.791Z,47.00
2023-01-13T21:15:39.860Z,48.10
2023-01-13T21:19:28.914Z,43.90
2023-01-13T21:23:17.994Z,43.50
2023-01-13T21:27:07.168Z,47.10
2023-01-13T21:30:56.268Z,60.40
2023-01-13T21:34:45.305Z,58.80
2023-01-13T21:38:34.479Z,52.00
2023-01-13T21:42:22.199Z,53.30
2023-01-13T21:46:10.162Z,50.90
2023-01-13T21:49:59.272Z,40.10
2023-01-13T21:53:48.527Z,42.60
2023-01-13T21:57:37.743Z,41.70
2023-01-13T22:01:26.953Z,46.60
2023-01-13T22:05:16.128Z,33.90
2023-01-13T22:09:05.243Z,37.80
2023-01-13T22:12:54.482Z,39.40
2023-01-13T22:16:43.603Z,34.70
2023-01-13T22:20:32.719Z,47.70
2023-01-13T22:24:21.948Z,45.40
2023-01-13T22:28:11.238Z,40.60
2023-01-13T22:32:00.397Z,40.30
2023-01-13T22:35:49.580Z,38.50
2023-01-13T22:39:38.645Z,37.10
2023-01-13T22:43:27.665Z,39.20
2023-01-13T22:47:16.783Z,38.30
2023-01-13T22:51:05.971Z,35.90
2023-01-13T22:54:55.072Z,43.50
2023-01-13T22:58:44.242Z,43.60
2023-01-13T23:02:33.333Z,47.50
2023-01-13T23:06:22.412Z,53.90
2023-01-13T23:10:11.458Z,49.30
2023-01-13T23:14:00.594Z,42.00
2023-01-13T23:17:49.696Z,45.70
2023-01-13T23:21:44.556Z,46.50
2023-01-13T23:25:33.633Z,47.00
2023-01-13T23:29:22.772Z,46.40
2023-01-13T23:33:11.820Z,51.60
2023-01-13T23:37:00.948Z,47.60
2023-01-13T23:40:50.213Z,43.30
2023-01-13T23:44:39.287Z,42.50
2023-01-13T23:48:28.515Z,45.30
2023-01-13T23:52:17.549Z,42.80
2023-01-13T23:56:06.691Z,44.70
2023-01-13T23:59:48.388Z,43.30
